sensor_id;sensor_type;location;lat;lon;timestamp;P1;durP1;ratioP1;P2;durP2;ratioP2
74415;SDS011;62850;42.428;25.618;2023-03-22T00:00:23;36.95;;;17.55;;
74415;SDS011;62850;42.428;25.618;2023-03-22T00:02:51;36.60;;;17.90;;
74415;SDS011;62850;42.428;25.618;2023-03-22T00:05:17;38.28;;;17.58;;
74415;SDS011;62850;42.428;25.618;2023-03-22T00:07:43;42.55;;;17.10;;
74415;SDS011;62850;42.428;25.618;2023-03-22T00:10:09;45.92;;;18.77;;
74415;SDS011;62850;42.428;25.618;2023-03-22T00:12:35;38.03;;;17.77;;
74415;SDS011;62850;42.428;25.618;2023-03-22T00:15:00;36.03;;;17.58;;
74415;SDS011;62850;42.428;25.618;2023-03-22T00:17:26;37.13;;;17.67;;
74415;SDS011;62850;42.428;25.618;2023-03-22T00:19:52;36.55;;;17.92;;
74415;SDS011;62850;42.428;25.618;2023-03-22T00:22:18;38.33;;;17.30;;
74415;SDS011;62850;42.428;25.618;2023-03-22T00:24:44;41.60;;;19.15;;
74415;SDS011;62850;42.428;25.618;2023-03-22T00:27:10;39.97;;;18.63;;
74415;SDS011;62850;42.428;25.618;2023-03-22T00:29:35;34.15;;;17.27;;
74415;SDS011;62850;42.428;25.618;2023-03-22T00:32:01;40.53;;;18.52;;
74415;SDS011;62850;42.428;25.618;2023-03-22T00:34:31;39.25;;;18.05;;
74415;SDS011;62850;42.428;25.618;2023-03-22T00:36:57;37.45;;;17.55;;
74415;SDS011;62850;42.428;25.618;2023-03-22T00:39:23;43.03;;;19.13;;
74415;SDS011;62850;42.428;25.618;2023-03-22T00:41:49;35.38;;;17.63;;
74415;SDS011;62850;42.428;25.618;2023-03-22T00:44:15;40.10;;;18.25;;
74415;SDS011;62850;42.428;25.618;2023-03-22T00:46:40;32.90;;;16.95;;
74415;SDS011;62850;42.428;25.618;2023-03-22T00:49:06;41.15;;;19.15;;
74415;SDS011;62850;42.428;25.618;2023-03-22T00:51:32;36.90;;;18.30;;
74415;SDS011;62850;42.428;25.618;2023-03-22T00:53:57;42.05;;;19.45;;
74415;SDS011;62850;42.428;25.618;2023-03-22T00:56:22;37.30;;;18.33;;
74415;SDS011;62850;42.428;25.618;2023-03-22T00:58:49;38.17;;;18.65;;
74415;SDS011;62850;42.428;25.618;2023-03-22T01:01:15;42.97;;;19.63;;
74415;SDS011;62850;42.428;25.618;2023-03-22T01:03:41;39.13;;;19.95;;
74415;SDS011;62850;42.428;25.618;2023-03-22T01:06:07;39.75;;;20.15;;
74415;SDS011;62850;42.428;25.618;2023-03-22T01:08:33;45.28;;;20.23;;
74415;SDS011;62850;42.428;25.618;2023-03-22T01:11:02;48.08;;;20.85;;
74415;SDS011;62850;42.428;25.618;2023-03-22T01:13:28;38.90;;;18.67;;
74415;SDS011;62850;42.428;25.618;2023-03-22T01:15:53;44.67;;;20.10;;
74415;SDS011;62850;42.428;25.618;2023-03-22T01:18:19;40.42;;;20.38;;
74415;SDS011;62850;42.428;25.618;2023-03-22T01:20:44;41.47;;;20.52;;
74415;SDS011;62850;42.428;25.618;2023-03-22T01:23:10;42.22;;;19.50;;
74415;SDS011;62850;42.428;25.618;2023-03-22T01:25:35;44.47;;;20.60;;
74415;SDS011;62850;42.428;25.618;2023-03-22T01:28:01;38.90;;;20.35;;
74415;SDS011;62850;42.428;25.618;2023-03-22T01:30:27;40.83;;;19.48;;
74415;SDS011;62850;42.428;25.618;2023-03-22T01:32:53;44.10;;;20.90;;
74415;SDS011;62850;42.428;25.618;2023-03-22T01:35:19;43.88;;;20.35;;
74415;SDS011;62850;42.428;25.618;2023-03-22T01:37:44;45.95;;;21.80;;
74415;SDS011;62850;42.428;25.618;2023-03-22T01:40:10;44.45;;;19.80;;
74415;SDS011;62850;42.428;25.618;2023-03-22T01:42:38;38.58;;;19.73;;
74415;SDS011;62850;42.428;25.618;2023-03-22T01:47:53;38.80;;;18.58;;
74415;SDS011;62850;42.428;25.618;2023-03-22T01:50:22;43.58;;;19.70;;
74415;SDS011;62850;42.428;25.618;2023-03-22T01:52:52;37.53;;;17.30;;
74415;SDS011;62850;42.428;25.618;2023-03-22T01:55:21;40.13;;;18.83;;
74415;SDS011;62850;42.428;25.618;2023-03-22T01:57:50;43.30;;;18.63;;
74415;SDS011;62850;42.428;25.618;2023-03-22T02:00:17;40.35;;;19.17;;
74415;SDS011;62850;42.428;25.618;2023-03-22T02:02:45;38.20;;;18.92;;
74415;SDS011;62850;42.428;25.618;2023-03-22T02:05:13;42.70;;;19.95;;
74415;SDS011;62850;42.428;25.618;2023-03-22T02:07:39;42.72;;;19.60;;
74415;SDS011;62850;42.428;25.618;2023-03-22T02:10:10;39.55;;;19.80;;
74415;SDS011;62850;42.428;25.618;2023-03-22T02:31:32;38.10;;;18.02;;
74415;SDS011;62850;42.428;25.618;2023-03-22T02:45:19;44.78;;;19.55;;
74415;SDS011;62850;42.428;25.618;2023-03-22T02:58:25;33.15;;;17.27;;
74415;SDS011;62850;42.428;25.618;2023-03-22T03:00:57;34.17;;;17.17;;
74415;SDS011;62850;42.428;25.618;2023-03-22T03:03:27;34.13;;;17.05;;
74415;SDS011;62850;42.428;25.618;2023-03-22T03:05:56;33.95;;;17.25;;
74415;SDS011;62850;42.428;25.618;2023-03-22T03:08:25;31.35;;;16.08;;
74415;SDS011;62850;42.428;25.618;2023-03-22T03:10:52;35.03;;;17.63;;
74415;SDS011;62850;42.428;25.618;2023-03-22T03:13:19;30.02;;;15.10;;
74415;SDS011;62850;42.428;25.618;2023-03-22T03:15:47;36.72;;;17.05;;
74415;SDS011;62850;42.428;25.618;2023-03-22T03:26:15;49.00;;;23.58;;
74415;SDS011;62850;42.428;25.618;2023-03-22T03:29:47;44.70;;;22.17;;
74415;SDS011;62850;42.428;25.618;2023-03-22T03:36:53;43.13;;;21.50;;
74415;SDS011;62850;42.428;25.618;2023-03-22T03:39:29;44.47;;;21.35;;
74415;SDS011;62850;42.428;25.618;2023-03-22T03:41:58;46.95;;;22.50;;
74415;SDS011;62850;42.428;25.618;2023-03-22T03:44:26;47.10;;;22.63;;
74415;SDS011;62850;42.428;25.618;2023-03-22T03:46:54;48.13;;;23.90;;
74415;SDS011;62850;42.428;25.618;2023-03-22T03:49:21;48.60;;;23.55;;
74415;SDS011;62850;42.428;25.618;2023-03-22T03:51:49;56.05;;;25.92;;
74415;SDS011;62850;42.428;25.618;2023-03-22T03:54:16;50.92;;;23.80;;
74415;SDS011;62850;42.428;25.618;2023-03-22T03:56:43;52.35;;;24.65;;
74415;SDS011;62850;42.428;25.618;2023-03-22T03:59:11;51.35;;;25.88;;
74415;SDS011;62850;42.428;25.618;2023-03-22T04:01:40;56.42;;;25.40;;
74415;SDS011;62850;42.428;25.618;2023-03-22T04:04:14;50.63;;;24.05;;
74415;SDS011;62850;42.428;25.618;2023-03-22T04:06:50;47.80;;;24.30;;
74415;SDS011;62850;42.428;25.618;2023-03-22T04:09:21;52.33;;;25.48;;
74415;SDS011;62850;42.428;25.618;2023-03-22T04:11:48;51.63;;;25.20;;
74415;SDS011;62850;42.428;25.618;2023-03-22T04:14:13;48.33;;;23.90;;
74415;SDS011;62850;42.428;25.618;2023-03-22T04:16:39;54.85;;;25.38;;
74415;SDS011;62850;42.428;25.618;2023-03-22T04:19:05;50.67;;;25.13;;
74415;SDS011;62850;42.428;25.618;2023-03-22T04:21:30;51.70;;;24.73;;
74415;SDS011;62850;42.428;25.618;2023-03-22T04:23:56;46.35;;;24.58;;
74415;SDS011;62850;42.428;25.618;2023-03-22T04:26:21;50.47;;;24.73;;
74415;SDS011;62850;42.428;25.618;2023-03-22T04:28:46;43.45;;;23.10;;
74415;SDS011;62850;42.428;25.618;2023-03-22T04:31:12;50.00;;;24.17;;
74415;SDS011;62850;42.428;25.618;2023-03-22T04:33:38;44.08;;;23.77;;
74415;SDS011;62850;42.428;25.618;2023-03-22T04:36:05;47.83;;;23.55;;
74415;SDS011;62850;42.428;25.618;2023-03-22T04:38:34;51.58;;;24.85;;
74415;SDS011;62850;42.428;25.618;2023-03-22T04:41:01;47.97;;;24.83;;
74415;SDS011;62850;42.428;25.618;2023-03-22T04:43:27;49.78;;;25.17;;
74415;SDS011;62850;42.428;25.618;2023-03-22T04:45:52;56.53;;;27.52;;
74415;SDS011;62850;42.428;25.618;2023-03-22T04:48:18;53.10;;;24.98;;
74415;SDS011;62850;42.428;25.618;2023-03-22T04:50:46;52.67;;;24.38;;
74415;SDS011;62850;42.428;25.618;2023-03-22T04:53:11;52.28;;;25.02;;
74415;SDS011;62850;42.428;25.618;2023-03-22T04:55:37;55.63;;;23.73;;
74415;SDS011;62850;42.428;25.618;2023-03-22T04:58:02;50.85;;;22.58;;
74415;SDS011;62850;42.428;25.618;2023-03-22T05:00:28;58.47;;;24.63;;
74415;SDS011;62850;42.428;25.618;2023-03-22T05:02:54;50.92;;;23.55;;
74415;SDS011;62850;42.428;25.618;2023-03-22T05:05:20;56.42;;;24.75;;
74415;SDS011;62850;42.428;25.618;2023-03-22T05:07:45;57.60;;;24.25;;
74415;SDS011;62850;42.428;25.618;2023-03-22T05:10:11;54.55;;;23.88;;
74415;SDS011;62850;42.428;25.618;2023-03-22T05:12:36;54.72;;;24.83;;
74415;SDS011;62850;42.428;25.618;2023-03-22T05:15:02;68.43;;;25.73;;
74415;SDS011;62850;42.428;25.618;2023-03-22T05:17:30;67.47;;;24.83;;
74415;SDS011;62850;42.428;25.618;2023-03-22T05:19:55;60.10;;;25.13;;
74415;SDS011;62850;42.428;25.618;2023-03-22T05:22:21;53.83;;;23.25;;
74415;SDS011;62850;42.428;25.618;2023-03-22T05:24:46;83.30;;;31.17;;
74415;SDS011;62850;42.428;25.618;2023-03-22T05:27:12;63.63;;;26.50;;
74415;SDS011;62850;42.428;25.618;2023-03-22T05:29:38;70.35;;;26.75;;
74415;SDS011;62850;42.428;25.618;2023-03-22T05:32:09;65.28;;;29.27;;
74415;SDS011;62850;42.428;25.618;2023-03-22T05:34:35;56.25;;;26.20;;
74415;SDS011;62850;42.428;25.618;2023-03-22T05:37:01;59.40;;;26.05;;
74415;SDS011;62850;42.428;25.618;2023-03-22T05:39:27;57.83;;;25.40;;
74415;SDS011;62850;42.428;25.618;2023-03-22T05:41:53;55.55;;;25.00;;
74415;SDS011;62850;42.428;25.618;2023-03-22T05:44:18;46.53;;;22.40;;
74415;SDS011;62850;42.428;25.618;2023-03-22T05:46:44;50.38;;;23.85;;
74415;SDS011;62850;42.428;25.618;2023-03-22T05:49:09;58.55;;;25.23;;
74415;SDS011;62850;42.428;25.618;2023-03-22T05:51:35;54.60;;;24.20;;
74415;SDS011;62850;42.428;25.618;2023-03-22T05:54:05;50.92;;;23.40;;
74415;SDS011;62850;42.428;25.618;2023-03-22T05:56:32;53.25;;;22.38;;
74415;SDS011;62850;42.428;25.618;2023-03-22T05:58:58;49.55;;;21.73;;
74415;SDS011;62850;42.428;25.618;2023-03-22T06:01:23;45.58;;;21.17;;
74415;SDS011;62850;42.428;25.618;2023-03-22T06:03:49;49.25;;;21.15;;
74415;SDS011;62850;42.428;25.618;2023-03-22T06:06:15;54.53;;;21.55;;
74415;SDS011;62850;42.428;25.618;2023-03-22T06:08:40;50.72;;;20.90;;
74415;SDS011;62850;42.428;25.618;2023-03-22T06:11:06;47.85;;;21.73;;
74415;SDS011;62850;42.428;25.618;2023-03-22T06:13:32;47.72;;;21.10;;
74415;SDS011;62850;42.428;25.618;2023-03-22T06:15:58;44.42;;;20.73;;
74415;SDS011;62850;42.428;25.618;2023-03-22T06:18:25;52.90;;;21.38;;
74415;SDS011;62850;42.428;25.618;2023-03-22T06:20:50;49.40;;;20.55;;
74415;SDS011;62850;42.428;25.618;2023-03-22T06:23:16;43.03;;;19.98;;
74415;SDS011;62850;42.428;25.618;2023-03-22T06:25:41;48.58;;;20.30;;
74415;SDS011;62850;42.428;25.618;2023-03-22T06:28:07;49.17;;;21.52;;
74415;SDS011;62850;42.428;25.618;2023-03-22T06:30:32;44.97;;;19.23;;
74415;SDS011;62850;42.428;25.618;2023-03-22T06:32:58;43.65;;;19.77;;
74415;SDS011;62850;42.428;25.618;2023-03-22T06:35:28;49.25;;;21.25;;
74415;SDS011;62850;42.428;25.618;2023-03-22T06:37:53;54.05;;;20.88;;
74415;SDS011;62850;42.428;25.618;2023-03-22T06:40:19;45.75;;;20.58;;
74415;SDS011;62850;42.428;25.618;2023-03-22T06:42:44;50.20;;;20.88;;
74415;SDS011;62850;42.428;25.618;2023-03-22T06:45:10;74.00;;;22.38;;
74415;SDS011;62850;42.428;25.618;2023-03-22T06:47:38;45.45;;;21.27;;
74415;SDS011;62850;42.428;25.618;2023-03-22T06:50:04;47.45;;;21.13;;
74415;SDS011;62850;42.428;25.618;2023-03-22T06:52:30;52.50;;;21.25;;
74415;SDS011;62850;42.428;25.618;2023-03-22T06:54:55;46.97;;;19.63;;
74415;SDS011;62850;42.428;25.618;2023-03-22T06:57:21;43.78;;;19.60;;
74415;SDS011;62850;42.428;25.618;2023-03-22T06:59:46;48.92;;;19.48;;
74415;SDS011;62850;42.428;25.618;2023-03-22T07:02:12;45.35;;;19.90;;
74415;SDS011;62850;42.428;25.618;2023-03-22T07:04:38;47.95;;;19.23;;
74415;SDS011;62850;42.428;25.618;2023-03-22T07:07:04;48.38;;;19.52;;
74415;SDS011;62850;42.428;25.618;2023-03-22T07:09:29;44.47;;;19.17;;
74415;SDS011;62850;42.428;25.618;2023-03-22T07:11:55;49.67;;;19.17;;
74415;SDS011;62850;42.428;25.618;2023-03-22T07:14:21;51.40;;;19.23;;
74415;SDS011;62850;42.428;25.618;2023-03-22T07:16:46;52.35;;;19.90;;
74415;SDS011;62850;42.428;25.618;2023-03-22T07:19:12;45.40;;;18.88;;
74415;SDS011;62850;42.428;25.618;2023-03-22T07:21:37;46.95;;;19.75;;
74415;SDS011;62850;42.428;25.618;2023-03-22T07:24:03;44.63;;;19.88;;
74415;SDS011;62850;42.428;25.618;2023-03-22T07:26:29;46.97;;;20.10;;
74415;SDS011;62850;42.428;25.618;2023-03-22T07:28:55;49.95;;;18.65;;
74415;SDS011;62850;42.428;25.618;2023-03-22T07:31:21;53.55;;;20.13;;
74415;SDS011;62850;42.428;25.618;2023-03-22T07:33:46;50.03;;;18.55;;
74415;SDS011;62850;42.428;25.618;2023-03-22T07:36:12;48.33;;;19.92;;
74415;SDS011;62850;42.428;25.618;2023-03-22T07:38:38;45.97;;;19.80;;
74415;SDS011;62850;42.428;25.618;2023-03-22T07:41:04;50.80;;;20.23;;
74415;SDS011;62850;42.428;25.618;2023-03-22T07:43:30;44.03;;;18.65;;
74415;SDS011;62850;42.428;25.618;2023-03-22T07:45:55;44.22;;;18.77;;
74415;SDS011;62850;42.428;25.618;2023-03-22T07:48:21;47.20;;;19.35;;
74415;SDS011;62850;42.428;25.618;2023-03-22T07:50:47;51.45;;;19.67;;
74415;SDS011;62850;42.428;25.618;2023-03-22T07:53:13;44.75;;;18.48;;
74415;SDS011;62850;42.428;25.618;2023-03-22T07:55:39;47.20;;;19.17;;
74415;SDS011;62850;42.428;25.618;2023-03-22T07:58:06;41.13;;;17.08;;
74415;SDS011;62850;42.428;25.618;2023-03-22T08:00:32;44.50;;;18.83;;
74415;SDS011;62850;42.428;25.618;2023-03-22T08:02:57;45.65;;;18.58;;
74415;SDS011;62850;42.428;25.618;2023-03-22T08:05:23;53.90;;;20.92;;
74415;SDS011;62850;42.428;25.618;2023-03-22T08:07:49;51.60;;;20.83;;
74415;SDS011;62850;42.428;25.618;2023-03-22T08:10:15;50.83;;;22.48;;
74415;SDS011;62850;42.428;25.618;2023-03-22T08:12:41;45.80;;;18.50;;
74415;SDS011;62850;42.428;25.618;2023-03-22T08:15:08;46.35;;;19.95;;
74415;SDS011;62850;42.428;25.618;2023-03-22T08:17:34;51.38;;;20.17;;
74415;SDS011;62850;42.428;25.618;2023-03-22T08:20:00;51.42;;;19.85;;
74415;SDS011;62850;42.428;25.618;2023-03-22T08:22:27;47.85;;;20.40;;
74415;SDS011;62850;42.428;25.618;2023-03-22T08:24:54;40.90;;;18.48;;
74415;SDS011;62850;42.428;25.618;2023-03-22T08:27:20;45.13;;;18.77;;
74415;SDS011;62850;42.428;25.618;2023-03-22T08:29:46;46.58;;;20.08;;
74415;SDS011;62850;42.428;25.618;2023-03-22T08:32:12;49.58;;;20.33;;
74415;SDS011;62850;42.428;25.618;2023-03-22T08:34:39;46.03;;;19.10;;
74415;SDS011;62850;42.428;25.618;2023-03-22T08:37:06;45.30;;;19.70;;
74415;SDS011;62850;42.428;25.618;2023-03-22T08:39:33;42.67;;;19.75;;
74415;SDS011;62850;42.428;25.618;2023-03-22T08:41:59;50.95;;;21.23;;
74415;SDS011;62850;42.428;25.618;2023-03-22T08:44:24;45.97;;;20.05;;
74415;SDS011;62850;42.428;25.618;2023-03-22T08:46:50;48.30;;;19.92;;
74415;SDS011;62850;42.428;25.618;2023-03-22T08:49:16;47.00;;;20.35;;
74415;SDS011;62850;42.428;25.618;2023-03-22T08:51:42;42.20;;;19.25;;
74415;SDS011;62850;42.428;25.618;2023-03-22T08:54:07;42.13;;;21.85;;
74415;SDS011;62850;42.428;25.618;2023-03-22T08:56:33;49.13;;;21.98;;
74415;SDS011;62850;42.428;25.618;2023-03-22T08:59:06;51.88;;;20.92;;
74415;SDS011;62850;42.428;25.618;2023-03-22T09:01:32;42.58;;;19.17;;
74415;SDS011;62850;42.428;25.618;2023-03-22T09:03:59;39.00;;;18.15;;
74415;SDS011;62850;42.428;25.618;2023-03-22T09:06:25;38.65;;;16.98;;
74415;SDS011;62850;42.428;25.618;2023-03-22T09:08:51;38.47;;;16.88;;
74415;SDS011;62850;42.428;25.618;2023-03-22T09:11:17;33.50;;;17.48;;
74415;SDS011;62850;42.428;25.618;2023-03-22T09:13:43;33.05;;;17.08;;
74415;SDS011;62850;42.428;25.618;2023-03-22T09:16:10;35.05;;;17.85;;
74415;SDS011;62850;42.428;25.618;2023-03-22T09:18:36;30.80;;;16.52;;
74415;SDS011;62850;42.428;25.618;2023-03-22T09:21:02;28.15;;;15.05;;
74415;SDS011;62850;42.428;25.618;2023-03-22T09:23:29;27.55;;;14.00;;
74415;SDS011;62850;42.428;25.618;2023-03-22T09:25:58;27.65;;;14.18;;
74415;SDS011;62850;42.428;25.618;2023-03-22T09:28:25;27.35;;;15.00;;
74415;SDS011;62850;42.428;25.618;2023-03-22T09:30:51;31.65;;;14.80;;
74415;SDS011;62850;42.428;25.618;2023-03-22T09:33:17;29.35;;;13.73;;
74415;SDS011;62850;42.428;25.618;2023-03-22T09:35:42;22.05;;;11.25;;
74415;SDS011;62850;42.428;25.618;2023-03-22T09:38:08;22.00;;;11.77;;
74415;SDS011;62850;42.428;25.618;2023-03-22T09:40:34;21.95;;;11.50;;
74415;SDS011;62850;42.428;25.618;2023-03-22T09:43:08;20.25;;;10.60;;
74415;SDS011;62850;42.428;25.618;2023-03-22T09:45:37;20.77;;;10.10;;
74415;SDS011;62850;42.428;25.618;2023-03-22T09:48:17;21.23;;;9.93;;
74415;SDS011;62850;42.428;25.618;2023-03-22T09:50:50;20.27;;;10.52;;
74415;SDS011;62850;42.428;25.618;2023-03-22T09:53:17;19.55;;;10.55;;
74415;SDS011;62850;42.428;25.618;2023-03-22T09:58:20;22.08;;;11.40;;
74415;SDS011;62850;42.428;25.618;2023-03-22T10:00:56;24.55;;;11.43;;
74415;SDS011;62850;42.428;25.618;2023-03-22T10:03:34;20.65;;;11.38;;
74415;SDS011;62850;42.428;25.618;2023-03-22T10:16:52;21.52;;;11.57;;
74415;SDS011;62850;42.428;25.618;2023-03-22T10:21:51;21.15;;;11.75;;
74415;SDS011;62850;42.428;25.618;2023-03-22T10:24:21;33.20;;;13.40;;
74415;SDS011;62850;42.428;25.618;2023-03-22T10:26:51;28.77;;;13.60;;
74415;SDS011;62850;42.428;25.618;2023-03-22T10:31:45;30.60;;;13.77;;
74415;SDS011;62850;42.428;25.618;2023-03-22T10:34:21;26.92;;;12.32;;
74415;SDS011;62850;42.428;25.618;2023-03-22T10:36:57;28.63;;;12.68;;
74415;SDS011;62850;42.428;25.618;2023-03-22T10:39:41;21.50;;;12.20;;
74415;SDS011;62850;42.428;25.618;2023-03-22T10:42:14;22.85;;;11.48;;
74415;SDS011;62850;42.428;25.618;2023-03-22T10:47:19;22.70;;;12.05;;
74415;SDS011;62850;42.428;25.618;2023-03-22T10:49:57;19.80;;;10.98;;
74415;SDS011;62850;42.428;25.618;2023-03-22T10:52:35;20.15;;;10.45;;
74415;SDS011;62850;42.428;25.618;2023-03-22T10:55:22;20.33;;;9.57;;
74415;SDS011;62850;42.428;25.618;2023-03-22T11:00:44;16.58;;;8.85;;
74415;SDS011;62850;42.428;25.618;2023-03-22T11:06:16;15.85;;;6.90;;
74415;SDS011;62850;42.428;25.618;2023-03-22T11:08:52;17.10;;;7.38;;
74415;SDS011;62850;42.428;25.618;2023-03-22T11:16:41;10.90;;;5.97;;
74415;SDS011;62850;42.428;25.618;2023-03-22T11:19:26;12.50;;;5.68;;
74415;SDS011;62850;42.428;25.618;2023-03-22T11:21:53;12.90;;;5.80;;
74415;SDS011;62850;42.428;25.618;2023-03-22T11:24:22;13.70;;;6.55;;
74415;SDS011;62850;42.428;25.618;2023-03-22T11:29:49;9.10;;;3.90;;
74415;SDS011;62850;42.428;25.618;2023-03-22T11:34:58;9.20;;;3.88;;
74415;SDS011;62850;42.428;25.618;2023-03-22T11:37:39;8.18;;;3.42;;
74415;SDS011;62850;42.428;25.618;2023-03-22T11:40:12;10.60;;;4.45;;
74415;SDS011;62850;42.428;25.618;2023-03-22T11:42:40;13.48;;;5.68;;
74415;SDS011;62850;42.428;25.618;2023-03-22T11:45:06;9.77;;;5.40;;
74415;SDS011;62850;42.428;25.618;2023-03-22T11:47:33;11.95;;;4.90;;
74415;SDS011;62850;42.428;25.618;2023-03-22T11:50:04;10.93;;;5.47;;
74415;SDS011;62850;42.428;25.618;2023-03-22T11:52:31;10.65;;;5.05;;
74415;SDS011;62850;42.428;25.618;2023-03-22T11:54:57;11.82;;;5.65;;
74415;SDS011;62850;42.428;25.618;2023-03-22T11:57:25;10.20;;;5.25;;
74415;SDS011;62850;42.428;25.618;2023-03-22T12:00:02;9.80;;;4.97;;
74415;SDS011;62850;42.428;25.618;2023-03-22T12:02:34;10.90;;;5.60;;
74415;SDS011;62850;42.428;25.618;2023-03-22T12:07:47;11.48;;;4.50;;
74415;SDS011;62850;42.428;25.618;2023-03-22T12:10:24;14.73;;;4.03;;
74415;SDS011;62850;42.428;25.618;2023-03-22T12:15:51;7.18;;;4.00;;
74415;SDS011;62850;42.428;25.618;2023-03-22T12:18:32;9.93;;;4.30;;
74415;SDS011;62850;42.428;25.618;2023-03-22T12:20:59;8.80;;;4.05;;
74415;SDS011;62850;42.428;25.618;2023-03-22T12:23:32;8.68;;;3.83;;
74415;SDS011;62850;42.428;25.618;2023-03-22T12:28:40;10.38;;;4.38;;
74415;SDS011;62850;42.428;25.618;2023-03-22T12:31:17;8.25;;;4.30;;
74415;SDS011;62850;42.428;25.618;2023-03-22T12:33:47;11.80;;;5.00;;
74415;SDS011;62850;42.428;25.618;2023-03-22T12:36:16;11.70;;;4.90;;
74415;SDS011;62850;42.428;25.618;2023-03-22T12:38:47;12.40;;;5.45;;
74415;SDS011;62850;42.428;25.618;2023-03-22T12:41:49;14.88;;;4.88;;
74415;SDS011;62850;42.428;25.618;2023-03-22T12:44:24;11.18;;;5.47;;
74415;SDS011;62850;42.428;25.618;2023-03-22T12:46:57;20.10;;;6.10;;
74415;SDS011;62850;42.428;25.618;2023-03-22T12:55:20;30.75;;;12.07;;
74415;SDS011;62850;42.428;25.618;2023-03-22T12:57:54;21.35;;;9.15;;
74415;SDS011;62850;42.428;25.618;2023-03-22T13:00:24;16.70;;;7.68;;
74415;SDS011;62850;42.428;25.618;2023-03-22T13:03:05;16.77;;;6.82;;
74415;SDS011;62850;42.428;25.618;2023-03-22T13:05:33;24.30;;;8.07;;
74415;SDS011;62850;42.428;25.618;2023-03-22T13:08:00;17.25;;;5.95;;
74415;SDS011;62850;42.428;25.618;2023-03-22T13:15:55;13.73;;;5.82;;
74415;SDS011;62850;42.428;25.618;2023-03-22T13:26:44;11.43;;;5.25;;
74415;SDS011;62850;42.428;25.618;2023-03-22T13:29:19;9.43;;;5.05;;
74415;SDS011;62850;42.428;25.618;2023-03-22T13:32:01;13.40;;;5.20;;
74415;SDS011;62850;42.428;25.618;2023-03-22T13:34:48;14.50;;;5.47;;
74415;SDS011;62850;42.428;25.618;2023-03-22T13:37:41;11.68;;;5.07;;
74415;SDS011;62850;42.428;25.618;2023-03-22T13:40:21;10.10;;;5.28;;
74415;SDS011;62850;42.428;25.618;2023-03-22T13:42:53;11.18;;;4.72;;
74415;SDS011;62850;42.428;25.618;2023-03-22T13:45:36;12.43;;;5.05;;
74415;SDS011;62850;42.428;25.618;2023-03-22T13:48:42;13.27;;;5.13;;
74415;SDS011;62850;42.428;25.618;2023-03-22T13:51:15;13.95;;;5.55;;
74415;SDS011;62850;42.428;25.618;2023-03-22T14:01:55;9.80;;;5.40;;
74415;SDS011;62850;42.428;25.618;2023-03-22T14:04:45;11.98;;;5.70;;
74415;SDS011;62850;42.428;25.618;2023-03-22T14:09:50;12.27;;;6.15;;
74415;SDS011;62850;42.428;25.618;2023-03-22T14:12:44;13.93;;;5.80;;
74415;SDS011;62850;42.428;25.618;2023-03-22T14:15:16;15.38;;;6.60;;
74415;SDS011;62850;42.428;25.618;2023-03-22T14:17:46;10.98;;;5.55;;
74415;SDS011;62850;42.428;25.618;2023-03-22T14:20:18;11.80;;;5.82;;
74415;SDS011;62850;42.428;25.618;2023-03-22T14:22:50;10.48;;;5.85;;
74415;SDS011;62850;42.428;25.618;2023-03-22T14:25:24;13.35;;;5.55;;
74415;SDS011;62850;42.428;25.618;2023-03-22T14:27:53;11.63;;;6.18;;
74415;SDS011;62850;42.428;25.618;2023-03-22T14:32:58;13.23;;;6.18;;
74415;SDS011;62850;42.428;25.618;2023-03-22T14:35:38;11.85;;;6.50;;
74415;SDS011;62850;42.428;25.618;2023-03-22T14:38:15;13.73;;;6.53;;
74415;SDS011;62850;42.428;25.618;2023-03-22T14:40:44;12.82;;;6.22;;
74415;SDS011;62850;42.428;25.618;2023-03-22T14:43:32;12.98;;;6.32;;
74415;SDS011;62850;42.428;25.618;2023-03-22T14:46:15;13.57;;;6.72;;
74415;SDS011;62850;42.428;25.618;2023-03-22T14:48:53;13.02;;;6.53;;
74415;SDS011;62850;42.428;25.618;2023-03-22T14:51:30;15.82;;;8.75;;
74415;SDS011;62850;42.428;25.618;2023-03-22T14:53:58;12.63;;;6.97;;
74415;SDS011;62850;42.428;25.618;2023-03-22T14:56:28;12.18;;;6.88;;
74415;SDS011;62850;42.428;25.618;2023-03-22T14:58:56;15.00;;;6.88;;
74415;SDS011;62850;42.428;25.618;2023-03-22T15:01:26;14.88;;;7.40;;
74415;SDS011;62850;42.428;25.618;2023-03-22T15:06:23;14.07;;;7.70;;
74415;SDS011;62850;42.428;25.618;2023-03-22T15:08:50;15.88;;;7.97;;
74415;SDS011;62850;42.428;25.618;2023-03-22T15:11:16;15.70;;;7.93;;
74415;SDS011;62850;42.428;25.618;2023-03-22T15:13:43;15.57;;;7.93;;
74415;SDS011;62850;42.428;25.618;2023-03-22T15:16:14;18.17;;;8.90;;
74415;SDS011;62850;42.428;25.618;2023-03-22T15:18:45;16.60;;;9.00;;
74415;SDS011;62850;42.428;25.618;2023-03-22T15:21:12;15.90;;;8.52;;
74415;SDS011;62850;42.428;25.618;2023-03-22T15:23:39;15.38;;;8.18;;
74415;SDS011;62850;42.428;25.618;2023-03-22T15:26:12;21.45;;;10.00;;
74415;SDS011;62850;42.428;25.618;2023-03-22T15:28:42;19.35;;;10.13;;
74415;SDS011;62850;42.428;25.618;2023-03-22T15:31:22;18.77;;;9.10;;
74415;SDS011;62850;42.428;25.618;2023-03-22T15:33:57;18.35;;;8.20;;
74415;SDS011;62850;42.428;25.618;2023-03-22T15:36:26;16.60;;;8.15;;
74415;SDS011;62850;42.428;25.618;2023-03-22T15:38:56;13.93;;;8.07;;
74415;SDS011;62850;42.428;25.618;2023-03-22T15:41:33;17.33;;;9.57;;
74415;SDS011;62850;42.428;25.618;2023-03-22T15:46:59;16.40;;;8.27;;
74415;SDS011;62850;42.428;25.618;2023-03-22T15:49:34;17.88;;;9.13;;
74415;SDS011;62850;42.428;25.618;2023-03-22T16:05:33;21.17;;;10.07;;
74415;SDS011;62850;42.428;25.618;2023-03-22T16:08:00;20.40;;;9.23;;
74415;SDS011;62850;42.428;25.618;2023-03-22T16:10:29;17.92;;;8.05;;
74415;SDS011;62850;42.428;25.618;2023-03-22T16:12:55;17.75;;;9.05;;
74415;SDS011;62850;42.428;25.618;2023-03-22T16:15:26;17.85;;;9.13;;
74415;SDS011;62850;42.428;25.618;2023-03-22T16:17:54;15.88;;;8.18;;
74415;SDS011;62850;42.428;25.618;2023-03-22T16:20:21;15.98;;;7.88;;
74415;SDS011;62850;42.428;25.618;2023-03-22T16:22:47;15.25;;;7.88;;
74415;SDS011;62850;42.428;25.618;2023-03-22T16:25:16;15.38;;;8.20;;
74415;SDS011;62850;42.428;25.618;2023-03-22T16:27:43;15.48;;;7.88;;
74415;SDS011;62850;42.428;25.618;2023-03-22T16:30:10;17.90;;;8.38;;
74415;SDS011;62850;42.428;25.618;2023-03-22T16:32:37;17.88;;;8.55;;
74415;SDS011;62850;42.428;25.618;2023-03-22T16:35:03;16.48;;;8.05;;
74415;SDS011;62850;42.428;25.618;2023-03-22T16:37:29;19.30;;;8.50;;
74415;SDS011;62850;42.428;25.618;2023-03-22T16:39:59;15.07;;;7.72;;
74415;SDS011;62850;42.428;25.618;2023-03-22T16:42:25;13.95;;;7.55;;
74415;SDS011;62850;42.428;25.618;2023-03-22T16:44:51;17.10;;;8.25;;
74415;SDS011;62850;42.428;25.618;2023-03-22T16:47:18;17.17;;;7.68;;
74415;SDS011;62850;42.428;25.618;2023-03-22T16:49:48;16.67;;;7.88;;
74415;SDS011;62850;42.428;25.618;2023-03-22T16:52:15;19.17;;;7.43;;
74415;SDS011;62850;42.428;25.618;2023-03-22T16:54:46;13.65;;;7.15;;
74415;SDS011;62850;42.428;25.618;2023-03-22T16:57:14;15.45;;;7.28;;